createdAt,value
2019-03-30T00:01:50.343Z,12.43
2019-03-30T00:04:18.748Z,12.27
2019-03-30T00:06:47.194Z,12.90
2019-03-30T00:09:15.546Z,13.27
2019-03-30T00:11:43.955Z,13.48
2019-03-30T00:14:12.365Z,13.93
2019-03-30T00:16:40.778Z,12.60
2019-03-30T00:19:09.161Z,12.87
2019-03-30T00:21:37.655Z,13.13
2019-03-30T00:24:06.024Z,13.17
2019-03-30T00:26:34.441Z,13.33
2019-03-30T00:29:02.841Z,13.93
2019-03-30T00:31:31.266Z,14.70
2019-03-30T00:33:59.661Z,15.17
2019-03-30T00:36:28.049Z,14.00
2019-03-30T00:38:56.436Z,14.13
2019-03-30T00:41:24.809Z,14.65
2019-03-30T00:43:53.169Z,14.40
2019-03-30T00:46:21.601Z,14.13
2019-03-30T00:48:49.982Z,13.60
2019-03-30T00:51:18.364Z,14.60
2019-03-30T00:53:47.231Z,14.33
2019-03-30T00:56:15.726Z,14.03
2019-03-30T00:58:44.119Z,14.30
2019-03-30T01:01:12.765Z,13.57
2019-03-30T01:03:41.313Z,14.05
2019-03-30T01:06:09.901Z,14.80
2019-03-30T01:08:38.265Z,16.05
2019-03-30T01:11:06.650Z,15.25
2019-03-30T01:13:35.134Z,14.60
2019-03-30T01:16:03.542Z,14.47
2019-03-30T01:18:32.103Z,15.67
2019-03-30T01:21:00.514Z,15.15
2019-03-30T01:23:28.931Z,15.07
2019-03-30T01:25:57.331Z,14.87
2019-03-30T01:28:25.770Z,16.03
2019-03-30T01:30:54.298Z,16.10
2019-03-30T01:33:22.698Z,15.80
2019-03-30T01:35:51.083Z,17.10
2019-03-30T01:38:19.503Z,15.33
2019-03-30T01:40:47.915Z,15.97
2019-03-30T01:43:16.366Z,16.40
2019-03-30T01:45:44.777Z,16.17
2019-03-30T01:48:13.259Z,16.47
2019-03-30T01:50:41.699Z,15.67
2019-03-30T01:53:10.128Z,16.53
2019-03-30T01:55:38.520Z,16.57
2019-03-30T01:58:06.940Z,17.33
2019-03-30T02:00:35.345Z,16.57
2019-03-30T02:03:03.776Z,16.40
2019-03-30T02:05:32.151Z,16.27
2019-03-30T02:08:00.539Z,15.50
2019-03-30T02:10:42.569Z,16.20
2019-03-30T02:13:10.972Z,17.82
2019-03-30T02:15:39.353Z,17.40
2019-03-30T02:18:08.025Z,17.30
2019-03-30T02:20:38.742Z,16.15
2019-03-30T02:23:07.346Z,17.73
2019-03-30T02:25:35.741Z,17.87
2019-03-30T02:28:06.912Z,17.80
2019-03-30T02:30:34.536Z,16.90
2019-03-30T02:33:02.963Z,18.57
2019-03-30T02:35:31.337Z,18.23
2019-03-30T02:37:59.754Z,17.80
2019-03-30T02:40:28.252Z,18.00
2019-03-30T02:42:56.626Z,19.00
2019-03-30T02:45:25.049Z,18.45
2019-03-30T02:47:53.509Z,17.93
2019-03-30T02:50:21.885Z,16.97
2019-03-30T02:52:50.397Z,18.05
2019-03-30T02:55:18.932Z,17.70
2019-03-30T02:57:47.349Z,18.67
2019-03-30T03:00:16.512Z,19.03
2019-03-30T03:02:44.992Z,17.85
2019-03-30T03:05:13.401Z,18.87
2019-03-30T03:07:41.822Z,17.90
2019-03-30T03:10:10.311Z,18.23
2019-03-30T03:12:38.816Z,19.48
2019-03-30T03:15:07.310Z,19.00
2019-03-30T03:17:35.691Z,19.15
2019-03-30T03:20:05.575Z,18.87
2019-03-30T03:22:33.986Z,20.27
2019-03-30T03:25:02.426Z,17.63
2019-03-30T03:27:30.927Z,20.37
2019-03-30T03:29:59.328Z,19.53
2019-03-30T03:32:27.772Z,18.77
2019-03-30T03:34:56.169Z,19.63
2019-03-30T03:37:43.588Z,20.53
2019-03-30T03:39:54.645Z,20.88
2019-03-30T03:42:23.122Z,19.93
2019-03-30T03:44:51.506Z,21.00
2019-03-30T03:47:19.890Z,20.43
2019-03-30T03:49:48.261Z,20.60
2019-03-30T03:52:16.599Z,20.30
2019-03-30T03:54:45.015Z,20.27
2019-03-30T03:57:13.724Z,20.30
2019-03-30T03:59:42.071Z,20.72
2019-03-30T04:02:11.190Z,21.33
2019-03-30T04:04:39.633Z,19.80
2019-03-30T04:07:08.034Z,20.80
2019-03-30T04:09:36.413Z,20.67
2019-03-30T04:12:06.870Z,21.70
2019-03-30T04:14:35.550Z,21.12
2019-03-30T04:17:03.979Z,20.20
2019-03-30T04:19:32.521Z,20.13
2019-03-30T04:22:00.992Z,22.65
2019-03-30T04:24:29.403Z,21.53
2019-03-30T04:26:57.806Z,20.80
2019-03-30T04:29:26.189Z,21.23
2019-03-30T04:31:54.744Z,21.70
2019-03-30T04:34:23.079Z,22.40
2019-03-30T04:36:51.417Z,20.45
2019-03-30T04:39:19.834Z,21.73
2019-03-30T04:41:48.188Z,20.70
2019-03-30T04:44:16.578Z,20.70
2019-03-30T04:46:44.978Z,20.93
2019-03-30T04:49:13.417Z,21.23
2019-03-30T04:51:41.800Z,19.57
2019-03-30T04:54:10.205Z,20.80
2019-03-30T04:56:38.618Z,20.77
2019-03-30T04:59:07.048Z,20.03
2019-03-30T05:01:35.590Z,18.50
2019-03-30T05:04:03.938Z,18.00
2019-03-30T05:06:32.350Z,17.30
2019-03-30T05:09:00.871Z,17.17
2019-03-30T05:11:29.227Z,17.83
2019-03-30T05:13:57.569Z,16.65
2019-03-30T05:16:27.807Z,16.43
2019-03-30T05:18:56.194Z,16.05
2019-03-30T05:21:24.592Z,16.47
2019-03-30T05:23:53.004Z,17.82
2019-03-30T05:26:21.418Z,14.58
2019-03-30T05:28:49.806Z,14.57
2019-03-30T05:31:18.197Z,13.78
2019-03-30T05:33:46.626Z,15.00
2019-03-30T05:36:15.036Z,15.72
2019-03-30T05:38:43.481Z,14.70
2019-03-30T05:41:11.885Z,15.08
2019-03-30T05:43:40.261Z,16.47
2019-03-30T05:46:08.673Z,15.78
2019-03-30T05:48:37.088Z,15.93
2019-03-30T05:51:05.502Z,15.20
2019-03-30T05:53:33.970Z,15.80
2019-03-30T05:56:02.354Z,16.83
2019-03-30T05:58:30.794Z,17.30
2019-03-30T06:00:59.190Z,16.17
2019-03-30T06:03:27.687Z,16.70
2019-03-30T06:05:56.087Z,15.73
2019-03-30T06:08:24.475Z,17.07
2019-03-30T06:10:52.900Z,15.70
2019-03-30T06:13:21.271Z,15.38
2019-03-30T06:15:49.679Z,15.70
2019-03-30T06:18:18.089Z,14.83
2019-03-30T06:20:46.503Z,15.25
2019-03-30T06:23:14.914Z,14.50
2019-03-30T06:25:43.257Z,13.22
2019-03-30T06:28:11.779Z,13.45
2019-03-30T06:30:40.188Z,14.20
2019-03-30T06:33:08.585Z,13.15
2019-03-30T06:35:37.011Z,13.03
2019-03-30T06:38:05.439Z,12.63
2019-03-30T06:40:33.817Z,13.57
2019-03-30T06:43:02.223Z,12.90
2019-03-30T06:45:30.590Z,12.23
2019-03-30T06:47:58.976Z,11.27
2019-03-30T06:50:27.500Z,10.37
2019-03-30T06:52:58.664Z,10.85
2019-03-30T06:55:25.988Z,10.05
2019-03-30T06:57:54.504Z,10.50
2019-03-30T07:00:31.344Z,11.53
2019-03-30T07:03:00.955Z,10.35
2019-03-30T07:05:29.470Z,9.88
2019-03-30T07:07:57.952Z,10.05
2019-03-30T07:10:26.331Z,10.72
2019-03-30T07:12:54.775Z,9.80
2019-03-30T07:15:23.236Z,10.28
2019-03-30T07:17:51.630Z,9.25
2019-03-30T07:20:27.549Z,9.65
2019-03-30T07:22:56.187Z,9.00
2019-03-30T07:25:25.158Z,9.08
2019-03-30T07:27:54.506Z,9.73
2019-03-30T07:30:22.886Z,9.03
2019-03-30T07:32:51.335Z,9.05
2019-03-30T07:35:19.764Z,9.33
2019-03-30T07:37:48.138Z,8.65
2019-03-30T07:40:16.570Z,8.95
2019-03-30T07:42:45.004Z,9.08
2019-03-30T07:45:13.373Z,8.88
2019-03-30T07:47:41.757Z,8.28
2019-03-30T07:50:10.509Z,8.03
2019-03-30T07:52:38.916Z,7.67
2019-03-30T07:55:07.324Z,8.43
2019-03-30T07:57:35.721Z,8.30
2019-03-30T08:00:07.233Z,8.38
2019-03-30T08:02:35.623Z,8.63
2019-03-30T08:05:06.250Z,9.30
2019-03-30T08:07:34.843Z,8.53
2019-03-30T08:10:04.087Z,8.70
2019-03-30T08:15:00.370Z,9.20
2019-03-30T08:17:28.777Z,8.48
2019-03-30T08:19:57.170Z,8.33
2019-03-30T08:22:25.598Z,8.15
2019-03-30T08:24:54.006Z,8.85
2019-03-30T08:27:22.412Z,8.43
2019-03-30T08:29:50.820Z,8.68
2019-03-30T08:32:19.230Z,9.20
2019-03-30T08:34:47.665Z,7.57
2019-03-30T08:37:16.042Z,8.15
2019-03-30T08:39:44.431Z,8.53
2019-03-30T08:42:12.999Z,9.28
2019-03-30T08:44:41.402Z,8.30
2019-03-30T08:47:09.780Z,7.95
2019-03-30T08:49:38.198Z,8.17
2019-03-30T08:52:06.641Z,8.17
2019-03-30T08:54:35.005Z,7.57
2019-03-30T08:57:03.412Z,8.58
2019-03-30T08:59:31.850Z,7.05
2019-03-30T09:02:00.352Z,7.50
2019-03-30T09:04:28.814Z,7.67
2019-03-30T09:06:57.238Z,7.00
2019-03-30T09:09:25.642Z,7.08
2019-03-30T09:11:54.022Z,7.05
2019-03-30T09:14:22.401Z,7.50
2019-03-30T09:16:50.915Z,9.08
2019-03-30T09:19:19.395Z,8.70
2019-03-30T09:21:47.789Z,7.08
2019-03-30T09:24:16.212Z,8.55
2019-03-30T09:26:44.585Z,10.72
2019-03-30T09:29:13.003Z,8.73
2019-03-30T09:31:41.448Z,11.60
2019-03-30T09:34:09.877Z,11.57
2019-03-30T09:36:38.387Z,9.88
2019-03-30T09:39:06.855Z,9.05
2019-03-30T09:41:35.275Z,10.75
2019-03-30T09:44:03.697Z,8.83
2019-03-30T09:46:32.175Z,9.15
2019-03-30T09:49:00.665Z,7.65
2019-03-30T09:51:29.095Z,8.15
2019-03-30T09:53:57.624Z,8.30
2019-03-30T09:56:25.994Z,8.23
2019-03-30T09:58:54.408Z,9.10
2019-03-30T10:01:22.818Z,8.28
2019-03-30T10:03:51.226Z,8.93
2019-03-30T10:06:19.645Z,16.05
2019-03-30T10:08:48.053Z,9.50
2019-03-30T10:11:16.452Z,9.43
2019-03-30T10:13:44.834Z,9.25
2019-03-30T10:16:13.207Z,9.60
2019-03-30T10:18:41.568Z,9.60
2019-03-30T10:21:09.978Z,10.27
2019-03-30T10:23:38.462Z,10.83
2019-03-30T10:26:06.861Z,10.63
2019-03-30T10:28:35.278Z,10.93
2019-03-30T10:31:03.737Z,12.57
2019-03-30T10:33:32.198Z,11.07
2019-03-30T10:36:00.642Z,11.23
2019-03-30T10:38:29.014Z,11.07
2019-03-30T10:40:57.465Z,10.93
2019-03-30T10:43:25.873Z,8.87
2019-03-30T10:45:54.348Z,9.97
2019-03-30T10:48:22.721Z,8.93
2019-03-30T10:50:51.197Z,11.70
2019-03-30T10:53:19.578Z,11.67
2019-03-30T10:55:48.019Z,12.60
2019-03-30T10:58:16.513Z,14.53
2019-03-30T11:00:44.896Z,10.93
2019-03-30T11:03:13.362Z,10.63
2019-03-30T11:05:41.754Z,12.70
2019-03-30T11:08:10.142Z,12.93
2019-03-30T11:10:38.559Z,11.08
2019-03-30T11:13:06.961Z,10.70
2019-03-30T11:15:35.348Z,9.98
2019-03-30T11:18:03.850Z,10.10
2019-03-30T11:20:32.300Z,11.07
2019-03-30T11:23:00.734Z,8.67
2019-03-30T11:25:29.111Z,9.48
2019-03-30T11:27:57.549Z,8.97
2019-03-30T11:30:25.986Z,8.93
2019-03-30T11:32:54.358Z,9.60
2019-03-30T11:35:22.763Z,8.45
2019-03-30T11:37:51.166Z,9.20
2019-03-30T11:40:19.576Z,8.78
2019-03-30T11:42:47.982Z,9.35
2019-03-30T11:45:16.526Z,9.20
2019-03-30T11:47:44.896Z,8.43
2019-03-30T11:50:13.278Z,8.43
2019-03-30T11:52:41.697Z,8.58
2019-03-30T11:55:21.106Z,10.28
2019-03-30T11:57:40.135Z,9.08
2019-03-30T12:00:08.575Z,8.55
2019-03-30T12:02:36.986Z,11.07
2019-03-30T12:05:07.338Z,12.05
2019-03-30T12:07:35.784Z,9.93
2019-03-30T12:10:05.618Z,12.13
2019-03-30T12:12:37.181Z,11.28
2019-03-30T12:15:06.206Z,12.23
2019-03-30T12:17:34.638Z,12.73
2019-03-30T12:20:03.618Z,12.03
2019-03-30T12:22:32.030Z,11.53
2019-03-30T12:25:00.446Z,25.02
2019-03-30T12:27:28.859Z,12.03
2019-03-30T12:29:57.270Z,12.90
2019-03-30T12:32:25.748Z,13.48
2019-03-30T12:34:54.138Z,13.60
2019-03-30T12:37:22.529Z,12.40
2019-03-30T12:39:50.948Z,12.98
2019-03-30T12:42:19.291Z,13.03
2019-03-30T12:44:47.641Z,11.60
2019-03-30T12:47:16.072Z,13.70
2019-03-30T12:49:45.421Z,12.27
2019-03-30T12:54:41.628Z,11.00
2019-03-30T12:57:10.128Z,11.63
2019-03-30T12:59:38.532Z,11.83
2019-03-30T13:02:06.940Z,11.80
2019-03-30T13:04:35.465Z,12.63
2019-03-30T13:07:03.843Z,10.80
2019-03-30T13:09:34.819Z,11.48
2019-03-30T13:12:02.346Z,10.95
2019-03-30T13:14:30.754Z,10.87
2019-03-30T13:16:59.173Z,11.10
2019-03-30T13:19:27.547Z,11.43
2019-03-30T13:21:55.988Z,10.48
2019-03-30T13:24:24.394Z,11.13
2019-03-30T13:26:52.834Z,10.13
2019-03-30T13:29:21.192Z,10.43
2019-03-30T13:31:49.537Z,9.78
2019-03-30T13:34:17.957Z,10.58
2019-03-30T13:36:46.414Z,9.45
2019-03-30T13:39:14.769Z,10.40
2019-03-30T13:41:43.174Z,9.95
2019-03-30T13:44:11.599Z,10.45
2019-03-30T13:46:40.084Z,11.03
2019-03-30T13:49:08.465Z,10.70
2019-03-30T13:51:36.886Z,11.15
2019-03-30T13:54:05.279Z,12.00
2019-03-30T13:56:33.678Z,10.60
2019-03-30T13:59:02.152Z,10.63
2019-03-30T14:01:30.556Z,10.27
2019-03-30T14:03:58.969Z,10.60
2019-03-30T14:06:27.374Z,11.93
2019-03-30T14:08:55.738Z,11.30
2019-03-30T14:11:24.167Z,10.80
2019-03-30T14:13:52.598Z,10.27
2019-03-30T14:16:21.027Z,10.43
2019-03-30T14:18:49.430Z,11.43
2019-03-30T14:21:17.810Z,9.85
2019-03-30T14:23:46.223Z,10.58
2019-03-30T14:26:14.611Z,10.67
2019-03-30T14:28:43.031Z,10.75
2019-03-30T14:31:11.435Z,9.85
2019-03-30T14:33:39.848Z,11.43
2019-03-30T14:36:08.261Z,10.05
2019-03-30T14:38:36.639Z,10.55
2019-03-30T14:41:05.073Z,10.87
2019-03-30T14:43:33.481Z,10.30
2019-03-30T14:46:01.862Z,10.05
2019-03-30T14:48:30.242Z,10.20
2019-03-30T14:50:58.589Z,10.43
2019-03-30T14:53:27.082Z,10.58
2019-03-30T14:55:55.445Z,10.03
2019-03-30T14:58:23.859Z,9.45
2019-03-30T15:00:52.291Z,10.00
2019-03-30T15:03:20.676Z,10.65
2019-03-30T15:05:49.091Z,10.68
2019-03-30T15:08:17.527Z,9.80
2019-03-30T15:10:45.929Z,10.05
2019-03-30T15:13:14.376Z,11.17
2019-03-30T15:15:42.841Z,9.55
2019-03-30T15:18:11.198Z,10.30
2019-03-30T15:20:39.601Z,10.38
2019-03-30T15:23:07.981Z,9.48
2019-03-30T15:25:36.384Z,9.83
2019-03-30T15:28:04.790Z,9.57
2019-03-30T15:30:33.180Z,9.03
2019-03-30T15:33:03.395Z,8.85
2019-03-30T15:35:31.620Z,8.93
2019-03-30T15:38:00.014Z,8.80
2019-03-30T15:40:28.438Z,8.83
2019-03-30T15:42:56.845Z,9.10
2019-03-30T15:45:25.317Z,8.33
2019-03-30T15:47:53.731Z,10.20
2019-03-30T15:50:22.167Z,9.53
2019-03-30T15:52:50.565Z,9.63
2019-03-30T15:55:19.119Z,9.03
2019-03-30T15:57:47.536Z,9.80
2019-03-30T16:00:16.205Z,10.18
2019-03-30T16:02:44.594Z,10.08
2019-03-30T16:05:15.469Z,9.98
2019-03-30T16:07:43.060Z,9.88
2019-03-30T16:10:11.446Z,8.73
2019-03-30T16:12:39.866Z,9.53
2019-03-30T16:15:08.788Z,9.07
2019-03-30T16:17:37.175Z,9.38
2019-03-30T16:20:07.008Z,8.80
2019-03-30T16:22:35.490Z,8.65
2019-03-30T16:25:04.958Z,8.80
2019-03-30T16:27:33.366Z,8.78
2019-03-30T16:30:01.761Z,9.30
2019-03-30T16:32:30.171Z,10.40
2019-03-30T16:34:58.582Z,10.25
2019-03-30T16:37:26.997Z,9.20
2019-03-30T16:39:55.369Z,8.97
2019-03-30T16:42:23.795Z,10.05
2019-03-30T16:44:52.174Z,9.10
2019-03-30T16:47:20.594Z,10.20
2019-03-30T16:49:49.004Z,10.30
2019-03-30T16:52:17.422Z,10.70
2019-03-30T16:54:45.840Z,11.33
2019-03-30T16:57:14.250Z,10.95
2019-03-30T16:59:42.676Z,10.58
2019-03-30T17:02:11.115Z,10.17
2019-03-30T17:04:39.481Z,10.90
2019-03-30T17:07:07.930Z,10.65
2019-03-30T17:09:36.362Z,10.60
2019-03-30T17:12:04.741Z,10.63
2019-03-30T17:14:33.168Z,10.98
2019-03-30T17:17:01.549Z,10.53
2019-03-30T17:19:29.969Z,10.85
2019-03-30T17:21:58.377Z,10.15
2019-03-30T17:24:26.765Z,10.60
2019-03-30T17:26:55.183Z,10.75
2019-03-30T17:29:23.586Z,11.50
2019-03-30T17:31:52.028Z,12.27
2019-03-30T17:34:20.416Z,12.07
2019-03-30T17:36:48.792Z,12.23
2019-03-30T17:39:17.221Z,12.30
2019-03-30T17:41:45.626Z,12.82
2019-03-30T17:44:14.029Z,12.57
2019-03-30T17:46:42.445Z,12.53
2019-03-30T17:49:10.825Z,12.68
2019-03-30T17:51:39.314Z,12.82
2019-03-30T17:54:07.693Z,12.70
2019-03-30T17:56:36.110Z,13.45
2019-03-30T17:59:04.482Z,14.70
2019-03-30T18:01:32.891Z,13.93
2019-03-30T18:04:01.281Z,14.23
2019-03-30T18:06:30.807Z,13.72
2019-03-30T18:08:59.218Z,13.85
2019-03-30T18:11:27.562Z,15.08
2019-03-30T18:13:55.966Z,14.47
2019-03-30T18:16:24.368Z,15.53
2019-03-30T18:18:52.775Z,15.65
2019-03-30T18:21:21.231Z,15.13
2019-03-30T18:23:49.630Z,14.80
2019-03-30T18:26:18.010Z,15.77
2019-03-30T18:28:46.399Z,15.25
2019-03-30T18:31:14.847Z,16.20
2019-03-30T18:33:43.241Z,15.53
2019-03-30T18:36:12.218Z,16.20
2019-03-30T18:38:40.622Z,15.75
2019-03-30T18:41:09.054Z,17.00
2019-03-30T18:43:37.432Z,17.95
2019-03-30T18:46:05.809Z,17.07
2019-03-30T18:48:34.222Z,16.57
2019-03-30T18:51:02.629Z,16.85
2019-03-30T18:53:31.041Z,17.92
2019-03-30T18:55:59.586Z,17.48
2019-03-30T18:58:40.980Z,18.63
2019-03-30T19:00:57.985Z,18.50
2019-03-30T19:03:26.365Z,19.62
2019-03-30T19:05:54.776Z,20.52
2019-03-30T19:08:23.156Z,20.10
2019-03-30T19:10:51.653Z,21.75
2019-03-30T19:13:20.063Z,23.57
2019-03-30T19:15:48.504Z,24.23
2019-03-30T19:18:16.877Z,24.93
2019-03-30T19:20:45.286Z,26.05
2019-03-30T19:23:13.748Z,27.37
2019-03-30T19:25:42.250Z,30.83
2019-03-30T19:28:10.652Z,35.00
2019-03-30T19:30:41.994Z,30.47
2019-03-30T19:33:09.101Z,33.18
2019-03-30T19:35:37.510Z,31.13
2019-03-30T19:38:05.885Z,33.55
2019-03-30T19:40:34.356Z,33.92
2019-03-30T19:43:02.842Z,38.13
2019-03-30T19:45:31.194Z,35.57
2019-03-30T19:47:59.578Z,36.68
2019-03-30T19:50:28.052Z,37.97
2019-03-30T19:52:56.467Z,36.45
2019-03-30T19:55:24.867Z,40.20
2019-03-30T19:57:53.270Z,38.98
2019-03-30T20:00:21.649Z,40.63
2019-03-30T20:02:50.084Z,40.88
2019-03-30T20:05:18.490Z,39.97
2019-03-30T20:07:46.870Z,40.23
2019-03-30T20:10:15.307Z,42.60
2019-03-30T20:12:43.709Z,40.28
2019-03-30T20:15:12.123Z,42.83
2019-03-30T20:17:40.541Z,41.88
2019-03-30T20:20:09.313Z,43.97
2019-03-30T20:22:37.718Z,45.20
2019-03-30T20:25:07.863Z,43.27
2019-03-30T20:27:36.409Z,46.50
2019-03-30T20:30:09.099Z,46.10
2019-03-30T20:32:37.892Z,45.15
2019-03-30T20:35:08.085Z,45.67
2019-03-30T20:37:36.450Z,45.73
2019-03-30T20:40:07.018Z,45.83
2019-03-30T20:42:35.420Z,48.35
2019-03-30T20:45:04.967Z,46.63
2019-03-30T20:47:33.345Z,49.93
2019-03-30T20:50:01.931Z,48.40
2019-03-30T20:52:30.446Z,49.05
2019-03-30T20:54:58.869Z,48.60
2019-03-30T20:57:27.236Z,48.73
2019-03-30T20:59:55.791Z,49.93
2019-03-30T21:02:24.158Z,50.40
2019-03-30T21:04:52.569Z,49.42
2019-03-30T21:07:21.027Z,49.63
2019-03-30T21:09:49.615Z,49.13
2019-03-30T21:12:18.014Z,49.80
2019-03-30T21:14:46.391Z,48.60
2019-03-30T21:17:14.830Z,50.28
2019-03-30T21:19:43.227Z,48.10
2019-03-30T21:22:11.837Z,50.98
2019-03-30T21:24:40.246Z,46.80
2019-03-30T21:27:08.691Z,47.93
2019-03-30T21:29:37.118Z,46.37
2019-03-30T21:32:05.462Z,46.77
2019-03-30T21:34:34.041Z,45.73
2019-03-30T21:37:02.406Z,44.55
2019-03-30T21:39:30.791Z,43.50
2019-03-30T21:41:59.198Z,41.70
2019-03-30T21:44:27.733Z,41.97
2019-03-30T21:46:56.142Z,41.13
2019-03-30T21:49:24.619Z,42.13
2019-03-30T21:51:52.955Z,42.85
2019-03-30T21:54:21.360Z,41.17
2019-03-30T21:56:49.833Z,43.07
2019-03-30T21:59:18.235Z,40.73
2019-03-30T22:01:46.734Z,40.73
2019-03-30T22:04:15.174Z,38.02
2019-03-30T22:06:43.587Z,39.00
2019-03-30T22:09:12.690Z,38.30
2019-03-30T22:11:41.070Z,35.17
2019-03-30T22:14:09.457Z,35.88
2019-03-30T22:16:37.845Z,36.48
2019-03-30T22:19:06.227Z,35.45
2019-03-30T22:21:34.686Z,33.67
2019-03-30T22:24:03.094Z,32.97
2019-03-30T22:26:31.704Z,35.92
2019-03-30T22:29:00.078Z,33.45
2019-03-30T22:31:28.563Z,35.27
2019-03-30T22:33:56.969Z,34.47
2019-03-30T22:36:25.355Z,33.43
2019-03-30T22:38:53.789Z,34.65
2019-03-30T22:41:22.166Z,35.05
2019-03-30T22:43:50.549Z,33.67
2019-03-30T22:46:18.997Z,32.23
2019-03-30T22:48:47.410Z,34.57
2019-03-30T22:51:15.893Z,34.23
2019-03-30T22:53:44.370Z,33.55
2019-03-30T22:56:12.757Z,34.10
2019-03-30T22:58:41.177Z,32.97
2019-03-30T23:01:11.235Z,33.97
2019-03-30T23:03:39.744Z,33.63
2019-03-30T23:06:08.118Z,34.73
2019-03-30T23:08:36.595Z,33.95
2019-03-30T23:11:05.077Z,34.48
2019-03-30T23:13:33.554Z,35.23
2019-03-30T23:16:02.033Z,35.25
2019-03-30T23:18:30.519Z,34.13
2019-03-30T23:20:58.889Z,34.27
2019-03-30T23:23:27.304Z,33.95
2019-03-30T23:25:55.738Z,36.37
2019-03-30T23:28:24.138Z,36.70
2019-03-30T23:30:54.435Z,36.70
2019-03-30T23:33:22.676Z,36.93
2019-03-30T23:35:51.120Z,37.17
2019-03-30T23:38:19.566Z,36.30
2019-03-30T23:40:47.940Z,36.23
2019-03-30T23:43:16.362Z,37.83
2019-03-30T23:45:44.935Z,37.23
2019-03-30T23:48:13.300Z,37.67
2019-03-30T23:50:41.713Z,39.23
2019-03-30T23:53:10.171Z,38.88
2019-03-30T23:55:38.566Z,40.77
2019-03-30T23:58:07.013Z,38.75
